sensor_id;sensor_type;location;lat;lon;timestamp;P1;durP1;ratioP1;P2;durP2;ratioP2
39454;SDS011;25155;41.890;23.446;2023-07-20T00:02:06;9.15;;;7.20;;
39454;SDS011;25155;41.890;23.446;2023-07-20T00:04:34;10.13;;;7.40;;
39454;SDS011;25155;41.890;23.446;2023-07-20T00:07:01;7.50;;;6.30;;
39454;SDS011;25155;41.890;23.446;2023-07-20T00:09:28;11.85;;;7.07;;
39454;SDS011;25155;41.890;23.446;2023-07-20T00:11:55;8.80;;;6.45;;
39454;SDS011;25155;41.890;23.446;2023-07-20T00:14:26;8.82;;;7.15;;
39454;SDS011;25155;41.890;23.446;2023-07-20T00:16:54;9.40;;;7.35;;
39454;SDS011;25155;41.890;23.446;2023-07-20T00:19:23;8.43;;;6.32;;
39454;SDS011;25155;41.890;23.446;2023-07-20T00:21:50;7.75;;;6.03;;
39454;SDS011;25155;41.890;23.446;2023-07-20T00:24:17;6.28;;;5.20;;
39454;SDS011;25155;41.890;23.446;2023-07-20T00:26:44;7.00;;;5.35;;
39454;SDS011;25155;41.890;23.446;2023-07-20T00:29:12;6.07;;;4.82;;
39454;SDS011;25155;41.890;23.446;2023-07-20T00:31:40;8.93;;;6.63;;
39454;SDS011;25155;41.890;23.446;2023-07-20T00:34:09;7.75;;;5.97;;
39454;SDS011;25155;41.890;23.446;2023-07-20T00:36:36;7.50;;;5.60;;
39454;SDS011;25155;41.890;23.446;2023-07-20T00:39:03;7.35;;;5.20;;
39454;SDS011;25155;41.890;23.446;2023-07-20T00:41:31;5.93;;;4.60;;
39454;SDS011;25155;41.890;23.446;2023-07-20T00:43:59;5.60;;;4.32;;
39454;SDS011;25155;41.890;23.446;2023-07-20T00:46:27;5.20;;;4.45;;
39454;SDS011;25155;41.890;23.446;2023-07-20T00:49:01;6.40;;;5.63;;
39454;SDS011;25155;41.890;23.446;2023-07-20T00:51:28;7.53;;;6.05;;
39454;SDS011;25155;41.890;23.446;2023-07-20T00:53:56;7.18;;;6.00;;
39454;SDS011;25155;41.890;23.446;2023-07-20T00:56:24;6.93;;;5.00;;
39454;SDS011;25155;41.890;23.446;2023-07-20T00:58:51;5.80;;;4.85;;
39454;SDS011;25155;41.890;23.446;2023-07-20T01:01:19;4.85;;;3.65;;
39454;SDS011;25155;41.890;23.446;2023-07-20T01:03:46;5.50;;;4.53;;
39454;SDS011;25155;41.890;23.446;2023-07-20T01:06:18;6.80;;;5.55;;
39454;SDS011;25155;41.890;23.446;2023-07-20T01:08:56;8.35;;;6.82;;
39454;SDS011;25155;41.890;23.446;2023-07-20T01:11:31;8.45;;;7.05;;
39454;SDS011;25155;41.890;23.446;2023-07-20T01:14:04;8.30;;;6.20;;
39454;SDS011;25155;41.890;23.446;2023-07-20T01:16:35;11.25;;;7.25;;
39454;SDS011;25155;41.890;23.446;2023-07-20T01:19:02;6.90;;;5.28;;
39454;SDS011;25155;41.890;23.446;2023-07-20T01:21:33;7.15;;;5.15;;
39454;SDS011;25155;41.890;23.446;2023-07-20T01:27:24;6.93;;;5.53;;
39454;SDS011;25155;41.890;23.446;2023-07-20T01:33:13;7.90;;;6.50;;
39454;SDS011;25155;41.890;23.446;2023-07-20T01:35:43;9.48;;;7.75;;
39454;SDS011;25155;41.890;23.446;2023-07-20T01:38:13;7.70;;;6.38;;
39454;SDS011;25155;41.890;23.446;2023-07-20T01:40:41;6.88;;;5.70;;
39454;SDS011;25155;41.890;23.446;2023-07-20T01:43:08;8.05;;;6.18;;
39454;SDS011;25155;41.890;23.446;2023-07-20T01:45:36;7.20;;;5.68;;
39454;SDS011;25155;41.890;23.446;2023-07-20T01:48:03;6.82;;;5.15;;
39454;SDS011;25155;41.890;23.446;2023-07-20T01:50:32;5.75;;;4.10;;
39454;SDS011;25155;41.890;23.446;2023-07-20T01:52:59;4.47;;;3.30;;
39454;SDS011;25155;41.890;23.446;2023-07-20T01:55:27;4.70;;;3.58;;
39454;SDS011;25155;41.890;23.446;2023-07-20T01:57:54;4.85;;;3.78;;
39454;SDS011;25155;41.890;23.446;2023-07-20T02:00:26;4.88;;;3.50;;
39454;SDS011;25155;41.890;23.446;2023-07-20T02:02:53;5.47;;;4.03;;
39454;SDS011;25155;41.890;23.446;2023-07-20T02:05:20;7.53;;;5.60;;
39454;SDS011;25155;41.890;23.446;2023-07-20T02:07:49;7.40;;;5.75;;
39454;SDS011;25155;41.890;23.446;2023-07-20T02:10:16;7.82;;;6.45;;
39454;SDS011;25155;41.890;23.446;2023-07-20T02:12:43;6.47;;;5.40;;
39454;SDS011;25155;41.890;23.446;2023-07-20T02:15:10;5.90;;;4.90;;
39454;SDS011;25155;41.890;23.446;2023-07-20T02:17:38;5.65;;;4.43;;
39454;SDS011;25155;41.890;23.446;2023-07-20T02:20:07;6.95;;;5.53;;
39454;SDS011;25155;41.890;23.446;2023-07-20T02:22:35;6.05;;;4.47;;
39454;SDS011;25155;41.890;23.446;2023-07-20T02:25:05;6.55;;;4.55;;
39454;SDS011;25155;41.890;23.446;2023-07-20T02:27:33;5.43;;;4.50;;
39454;SDS011;25155;41.890;23.446;2023-07-20T02:30:03;7.53;;;5.80;;
39454;SDS011;25155;41.890;23.446;2023-07-20T02:32:32;7.05;;;6.00;;
39454;SDS011;25155;41.890;23.446;2023-07-20T02:34:59;7.20;;;4.95;;
39454;SDS011;25155;41.890;23.446;2023-07-20T02:37:29;8.23;;;6.35;;
39454;SDS011;25155;41.890;23.446;2023-07-20T02:39:59;5.80;;;4.95;;
39454;SDS011;25155;41.890;23.446;2023-07-20T02:42:29;5.68;;;4.40;;
39454;SDS011;25155;41.890;23.446;2023-07-20T02:44:57;5.80;;;3.88;;
39454;SDS011;25155;41.890;23.446;2023-07-20T02:47:24;5.88;;;4.65;;
39454;SDS011;25155;41.890;23.446;2023-07-20T02:49:54;6.05;;;4.70;;
39454;SDS011;25155;41.890;23.446;2023-07-20T02:52:22;5.37;;;4.17;;
39454;SDS011;25155;41.890;23.446;2023-07-20T02:54:50;5.05;;;3.80;;
39454;SDS011;25155;41.890;23.446;2023-07-20T02:57:17;6.35;;;4.65;;
39454;SDS011;25155;41.890;23.446;2023-07-20T02:59:46;5.55;;;4.32;;
39454;SDS011;25155;41.890;23.446;2023-07-20T03:02:14;5.30;;;4.10;;
39454;SDS011;25155;41.890;23.446;2023-07-20T03:04:41;4.82;;;3.67;;
39454;SDS011;25155;41.890;23.446;2023-07-20T03:07:08;5.15;;;4.05;;
39454;SDS011;25155;41.890;23.446;2023-07-20T03:09:35;6.03;;;4.82;;
39454;SDS011;25155;41.890;23.446;2023-07-20T03:12:03;6.22;;;4.50;;
39454;SDS011;25155;41.890;23.446;2023-07-20T03:14:30;7.25;;;5.30;;
39454;SDS011;25155;41.890;23.446;2023-07-20T03:16:59;6.55;;;4.95;;
39454;SDS011;25155;41.890;23.446;2023-07-20T03:19:26;6.15;;;4.60;;
39454;SDS011;25155;41.890;23.446;2023-07-20T03:21:54;6.88;;;5.10;;
39454;SDS011;25155;41.890;23.446;2023-07-20T03:24:21;5.82;;;4.82;;
39454;SDS011;25155;41.890;23.446;2023-07-20T03:26:49;6.65;;;5.50;;
39454;SDS011;25155;41.890;23.446;2023-07-20T03:29:16;7.38;;;6.13;;
39454;SDS011;25155;41.890;23.446;2023-07-20T03:31:43;6.40;;;5.50;;
39454;SDS011;25155;41.890;23.446;2023-07-20T03:34:17;7.22;;;5.85;;
39454;SDS011;25155;41.890;23.446;2023-07-20T03:36:45;9.90;;;7.53;;
39454;SDS011;25155;41.890;23.446;2023-07-20T03:39:12;8.95;;;7.78;;
39454;SDS011;25155;41.890;23.446;2023-07-20T03:41:39;8.63;;;6.32;;
39454;SDS011;25155;41.890;23.446;2023-07-20T03:44:07;7.13;;;6.13;;
39454;SDS011;25155;41.890;23.446;2023-07-20T03:46:35;8.98;;;7.78;;
39454;SDS011;25155;41.890;23.446;2023-07-20T03:49:03;8.68;;;6.60;;
39454;SDS011;25155;41.890;23.446;2023-07-20T03:51:33;8.32;;;7.00;;
39454;SDS011;25155;41.890;23.446;2023-07-20T03:54:00;7.35;;;6.13;;
39454;SDS011;25155;41.890;23.446;2023-07-20T03:56:29;6.32;;;5.40;;
39454;SDS011;25155;41.890;23.446;2023-07-20T03:59:00;7.43;;;5.50;;
39454;SDS011;25155;41.890;23.446;2023-07-20T04:01:28;5.53;;;4.30;;
39454;SDS011;25155;41.890;23.446;2023-07-20T04:03:55;6.63;;;5.30;;
39454;SDS011;25155;41.890;23.446;2023-07-20T04:06:23;6.03;;;4.70;;
39454;SDS011;25155;41.890;23.446;2023-07-20T04:08:51;5.65;;;4.15;;
39454;SDS011;25155;41.890;23.446;2023-07-20T04:11:19;5.57;;;4.47;;
39454;SDS011;25155;41.890;23.446;2023-07-20T04:13:46;5.35;;;4.45;;
39454;SDS011;25155;41.890;23.446;2023-07-20T04:16:13;5.40;;;4.30;;
39454;SDS011;25155;41.890;23.446;2023-07-20T04:18:40;5.47;;;4.60;;
39454;SDS011;25155;41.890;23.446;2023-07-20T04:21:08;5.65;;;4.38;;
39454;SDS011;25155;41.890;23.446;2023-07-20T04:23:35;5.72;;;4.80;;
39454;SDS011;25155;41.890;23.446;2023-07-20T04:26:04;6.15;;;4.93;;
39454;SDS011;25155;41.890;23.446;2023-07-20T04:28:32;8.82;;;6.97;;
39454;SDS011;25155;41.890;23.446;2023-07-20T04:31:09;7.03;;;5.32;;
39454;SDS011;25155;41.890;23.446;2023-07-20T04:33:37;9.90;;;8.32;;
39454;SDS011;25155;41.890;23.446;2023-07-20T04:36:04;8.30;;;6.95;;
39454;SDS011;25155;41.890;23.446;2023-07-20T04:38:31;10.75;;;8.18;;
39454;SDS011;25155;41.890;23.446;2023-07-20T04:40:59;12.73;;;9.15;;
39454;SDS011;25155;41.890;23.446;2023-07-20T04:43:28;11.05;;;8.93;;
39454;SDS011;25155;41.890;23.446;2023-07-20T04:45:56;8.68;;;7.43;;
39454;SDS011;25155;41.890;23.446;2023-07-20T04:48:25;7.85;;;6.43;;
39454;SDS011;25155;41.890;23.446;2023-07-20T04:50:52;6.82;;;5.78;;
39454;SDS011;25155;41.890;23.446;2023-07-20T04:53:21;9.80;;;7.75;;
39454;SDS011;25155;41.890;23.446;2023-07-20T04:55:49;8.15;;;6.25;;
39454;SDS011;25155;41.890;23.446;2023-07-20T04:58:20;8.23;;;6.43;;
39454;SDS011;25155;41.890;23.446;2023-07-20T05:00:50;8.25;;;6.93;;
39454;SDS011;25155;41.890;23.446;2023-07-20T05:03:17;7.22;;;6.13;;
39454;SDS011;25155;41.890;23.446;2023-07-20T05:05:46;7.78;;;6.10;;
39454;SDS011;25155;41.890;23.446;2023-07-20T05:08:13;7.45;;;6.30;;
39454;SDS011;25155;41.890;23.446;2023-07-20T05:10:41;8.02;;;6.20;;
39454;SDS011;25155;41.890;23.446;2023-07-20T05:13:09;8.90;;;7.43;;
39454;SDS011;25155;41.890;23.446;2023-07-20T05:15:36;8.90;;;7.38;;
39454;SDS011;25155;41.890;23.446;2023-07-20T05:18:05;11.35;;;8.13;;
39454;SDS011;25155;41.890;23.446;2023-07-20T05:20:34;9.18;;;7.22;;
39454;SDS011;25155;41.890;23.446;2023-07-20T05:23:03;8.77;;;7.20;;
39454;SDS011;25155;41.890;23.446;2023-07-20T05:25:32;9.00;;;7.65;;
39454;SDS011;25155;41.890;23.446;2023-07-20T05:27:59;9.02;;;7.90;;
39454;SDS011;25155;41.890;23.446;2023-07-20T05:30:27;8.07;;;7.18;;
39454;SDS011;25155;41.890;23.446;2023-07-20T05:32:55;7.55;;;6.75;;
39454;SDS011;25155;41.890;23.446;2023-07-20T05:35:23;8.63;;;7.53;;
39454;SDS011;25155;41.890;23.446;2023-07-20T05:37:52;7.38;;;6.47;;
39454;SDS011;25155;41.890;23.446;2023-07-20T05:40:19;10.57;;;8.60;;
39454;SDS011;25155;41.890;23.446;2023-07-20T05:42:46;8.35;;;7.45;;
39454;SDS011;25155;41.890;23.446;2023-07-20T05:45:17;9.23;;;7.55;;
39454;SDS011;25155;41.890;23.446;2023-07-20T05:47:46;10.85;;;8.45;;
39454;SDS011;25155;41.890;23.446;2023-07-20T05:50:14;10.52;;;9.02;;
39454;SDS011;25155;41.890;23.446;2023-07-20T05:52:42;10.45;;;9.35;;
39454;SDS011;25155;41.890;23.446;2023-07-20T05:55:09;12.38;;;10.40;;
39454;SDS011;25155;41.890;23.446;2023-07-20T05:57:38;10.73;;;9.60;;
39454;SDS011;25155;41.890;23.446;2023-07-20T06:00:08;10.88;;;9.68;;
39454;SDS011;25155;41.890;23.446;2023-07-20T06:02:37;10.98;;;9.20;;
39454;SDS011;25155;41.890;23.446;2023-07-20T06:05:05;10.85;;;9.23;;
39454;SDS011;25155;41.890;23.446;2023-07-20T06:07:34;11.15;;;9.10;;
39454;SDS011;25155;41.890;23.446;2023-07-20T06:10:03;10.63;;;8.88;;
39454;SDS011;25155;41.890;23.446;2023-07-20T06:12:32;9.15;;;8.07;;
39454;SDS011;25155;41.890;23.446;2023-07-20T06:15:01;12.38;;;11.07;;
39454;SDS011;25155;41.890;23.446;2023-07-20T06:17:29;11.32;;;10.05;;
39454;SDS011;25155;41.890;23.446;2023-07-20T06:20:00;10.43;;;8.38;;
39454;SDS011;25155;41.890;23.446;2023-07-20T06:22:27;9.18;;;8.13;;
39454;SDS011;25155;41.890;23.446;2023-07-20T06:24:55;9.68;;;8.50;;
39454;SDS011;25155;41.890;23.446;2023-07-20T06:27:23;10.65;;;9.35;;
39454;SDS011;25155;41.890;23.446;2023-07-20T06:29:51;10.60;;;9.13;;
39454;SDS011;25155;41.890;23.446;2023-07-20T06:32:18;11.90;;;9.93;;
39454;SDS011;25155;41.890;23.446;2023-07-20T06:34:45;11.27;;;10.05;;
39454;SDS011;25155;41.890;23.446;2023-07-20T06:37:12;15.32;;;10.88;;
39454;SDS011;25155;41.890;23.446;2023-07-20T06:39:42;11.85;;;10.60;;
39454;SDS011;25155;41.890;23.446;2023-07-20T06:42:10;10.48;;;8.75;;
39454;SDS011;25155;41.890;23.446;2023-07-20T06:44:39;15.27;;;10.10;;
39454;SDS011;25155;41.890;23.446;2023-07-20T06:47:07;11.52;;;8.48;;
39454;SDS011;25155;41.890;23.446;2023-07-20T06:49:35;8.30;;;7.40;;
39454;SDS011;25155;41.890;23.446;2023-07-20T06:52:02;11.25;;;9.10;;
39454;SDS011;25155;41.890;23.446;2023-07-20T06:54:29;11.02;;;9.10;;
39454;SDS011;25155;41.890;23.446;2023-07-20T06:56:56;9.80;;;8.40;;
39454;SDS011;25155;41.890;23.446;2023-07-20T06:59:24;10.82;;;8.55;;
39454;SDS011;25155;41.890;23.446;2023-07-20T07:01:52;11.07;;;9.30;;
39454;SDS011;25155;41.890;23.446;2023-07-20T07:04:19;13.23;;;10.00;;
39454;SDS011;25155;41.890;23.446;2023-07-20T07:06:47;11.02;;;8.80;;
39454;SDS011;25155;41.890;23.446;2023-07-20T07:09:14;16.17;;;11.02;;
39454;SDS011;25155;41.890;23.446;2023-07-20T07:11:41;11.70;;;9.57;;
39454;SDS011;25155;41.890;23.446;2023-07-20T07:14:08;14.50;;;10.57;;
39454;SDS011;25155;41.890;23.446;2023-07-20T07:16:36;12.48;;;10.65;;
39454;SDS011;25155;41.890;23.446;2023-07-20T07:19:04;13.32;;;11.02;;
39454;SDS011;25155;41.890;23.446;2023-07-20T07:21:33;11.82;;;8.98;;
39454;SDS011;25155;41.890;23.446;2023-07-20T07:24:00;7.72;;;6.63;;
39454;SDS011;25155;41.890;23.446;2023-07-20T07:26:27;10.35;;;9.13;;
39454;SDS011;25155;41.890;23.446;2023-07-20T07:28:54;12.60;;;9.25;;
39454;SDS011;25155;41.890;23.446;2023-07-20T07:31:24;10.30;;;8.93;;
39454;SDS011;25155;41.890;23.446;2023-07-20T07:33:52;8.82;;;7.53;;
39454;SDS011;25155;41.890;23.446;2023-07-20T07:36:21;9.57;;;8.57;;
39454;SDS011;25155;41.890;23.446;2023-07-20T07:38:50;8.70;;;7.47;;
39454;SDS011;25155;41.890;23.446;2023-07-20T07:41:17;10.38;;;8.98;;
39454;SDS011;25155;41.890;23.446;2023-07-20T07:43:44;8.60;;;7.43;;
39454;SDS011;25155;41.890;23.446;2023-07-20T07:46:11;10.05;;;7.78;;
39454;SDS011;25155;41.890;23.446;2023-07-20T07:48:39;10.43;;;9.30;;
39454;SDS011;25155;41.890;23.446;2023-07-20T07:51:07;10.30;;;8.70;;
39454;SDS011;25155;41.890;23.446;2023-07-20T07:53:35;10.20;;;8.40;;
39454;SDS011;25155;41.890;23.446;2023-07-20T07:56:03;9.05;;;7.82;;
39454;SDS011;25155;41.890;23.446;2023-07-20T07:58:36;9.63;;;8.18;;
39454;SDS011;25155;41.890;23.446;2023-07-20T08:01:03;9.50;;;8.25;;
39454;SDS011;25155;41.890;23.446;2023-07-20T08:03:31;10.43;;;8.73;;
39454;SDS011;25155;41.890;23.446;2023-07-20T08:05:58;10.45;;;8.40;;
39454;SDS011;25155;41.890;23.446;2023-07-20T08:08:25;9.43;;;7.35;;
39454;SDS011;25155;41.890;23.446;2023-07-20T08:10:54;10.05;;;8.65;;
39454;SDS011;25155;41.890;23.446;2023-07-20T08:13:22;9.75;;;8.15;;
39454;SDS011;25155;41.890;23.446;2023-07-20T08:15:49;11.38;;;9.55;;
39454;SDS011;25155;41.890;23.446;2023-07-20T08:18:17;9.52;;;8.10;;
39454;SDS011;25155;41.890;23.446;2023-07-20T08:20:45;8.00;;;7.10;;
39454;SDS011;25155;41.890;23.446;2023-07-20T08:23:12;10.88;;;8.52;;
39454;SDS011;25155;41.890;23.446;2023-07-20T08:25:40;10.10;;;7.72;;
39454;SDS011;25155;41.890;23.446;2023-07-20T08:28:11;12.25;;;8.15;;
39454;SDS011;25155;41.890;23.446;2023-07-20T08:30:42;9.77;;;7.63;;
39454;SDS011;25155;41.890;23.446;2023-07-20T08:33:10;12.88;;;8.23;;
39454;SDS011;25155;41.890;23.446;2023-07-20T08:35:37;10.05;;;7.95;;
39454;SDS011;25155;41.890;23.446;2023-07-20T08:38:04;7.72;;;6.93;;
39454;SDS011;25155;41.890;23.446;2023-07-20T08:40:33;8.75;;;6.15;;
39454;SDS011;25155;41.890;23.446;2023-07-20T08:43:05;9.15;;;7.82;;
39454;SDS011;25155;41.890;23.446;2023-07-20T08:45:34;9.32;;;7.82;;
39454;SDS011;25155;41.890;23.446;2023-07-20T08:48:05;9.30;;;6.88;;
39454;SDS011;25155;41.890;23.446;2023-07-20T08:50:33;8.73;;;7.72;;
39454;SDS011;25155;41.890;23.446;2023-07-20T08:53:02;7.80;;;6.50;;
39454;SDS011;25155;41.890;23.446;2023-07-20T08:55:29;9.30;;;7.93;;
39454;SDS011;25155;41.890;23.446;2023-07-20T08:57:58;8.25;;;7.22;;
39454;SDS011;25155;41.890;23.446;2023-07-20T09:00:27;12.00;;;8.00;;
39454;SDS011;25155;41.890;23.446;2023-07-20T09:02:59;9.52;;;7.45;;
39454;SDS011;25155;41.890;23.446;2023-07-20T09:05:31;12.55;;;7.78;;
39454;SDS011;25155;41.890;23.446;2023-07-20T09:08:00;9.27;;;6.68;;
39454;SDS011;25155;41.890;23.446;2023-07-20T09:10:29;8.57;;;6.35;;
39454;SDS011;25155;41.890;23.446;2023-07-20T09:12:56;10.15;;;7.35;;
39454;SDS011;25155;41.890;23.446;2023-07-20T09:15:23;8.70;;;6.95;;
39454;SDS011;25155;41.890;23.446;2023-07-20T09:17:50;8.00;;;6.43;;
39454;SDS011;25155;41.890;23.446;2023-07-20T09:20:21;7.80;;;6.22;;
39454;SDS011;25155;41.890;23.446;2023-07-20T09:22:48;9.38;;;6.25;;
39454;SDS011;25155;41.890;23.446;2023-07-20T09:25:18;7.72;;;5.75;;
39454;SDS011;25155;41.890;23.446;2023-07-20T09:27:46;11.45;;;5.68;;
39454;SDS011;25155;41.890;23.446;2023-07-20T09:30:15;11.60;;;6.18;;
39454;SDS011;25155;41.890;23.446;2023-07-20T09:32:44;9.27;;;5.00;;
39454;SDS011;25155;41.890;23.446;2023-07-20T09:35:12;13.00;;;5.60;;
39454;SDS011;25155;41.890;23.446;2023-07-20T09:37:47;10.32;;;5.38;;
39454;SDS011;25155;41.890;23.446;2023-07-20T09:40:17;7.32;;;5.25;;
39454;SDS011;25155;41.890;23.446;2023-07-20T09:42:45;8.32;;;5.18;;
39454;SDS011;25155;41.890;23.446;2023-07-20T09:45:13;9.57;;;5.80;;
39454;SDS011;25155;41.890;23.446;2023-07-20T09:47:41;9.75;;;5.82;;
39454;SDS011;25155;41.890;23.446;2023-07-20T09:50:09;8.32;;;5.43;;
39454;SDS011;25155;41.890;23.446;2023-07-20T09:52:40;11.55;;;6.00;;
39454;SDS011;25155;41.890;23.446;2023-07-20T09:55:12;9.82;;;5.85;;
39454;SDS011;25155;41.890;23.446;2023-07-20T09:57:40;15.02;;;5.80;;
39454;SDS011;25155;41.890;23.446;2023-07-20T10:00:07;6.57;;;4.65;;
39454;SDS011;25155;41.890;23.446;2023-07-20T10:02:47;9.13;;;5.95;;
39454;SDS011;25155;41.890;23.446;2023-07-20T10:05:18;11.57;;;5.18;;
39454;SDS011;25155;41.890;23.446;2023-07-20T10:10:18;6.88;;;4.88;;
39454;SDS011;25155;41.890;23.446;2023-07-20T10:12:47;9.38;;;5.35;;
39454;SDS011;25155;41.890;23.446;2023-07-20T10:15:20;9.52;;;5.30;;
39454;SDS011;25155;41.890;23.446;2023-07-20T10:17:58;9.50;;;5.30;;
39454;SDS011;25155;41.890;23.446;2023-07-20T10:20:29;9.00;;;5.45;;
39454;SDS011;25155;41.890;23.446;2023-07-20T10:22:58;11.35;;;5.57;;
39454;SDS011;25155;41.890;23.446;2023-07-20T10:25:29;10.25;;;5.20;;
39454;SDS011;25155;41.890;23.446;2023-07-20T10:27:57;35.22;;;6.75;;
39454;SDS011;25155;41.890;23.446;2023-07-20T10:30:25;12.35;;;5.60;;
39454;SDS011;25155;41.890;23.446;2023-07-20T10:32:53;9.60;;;5.35;;
39454;SDS011;25155;41.890;23.446;2023-07-20T10:35:21;7.97;;;5.20;;
39454;SDS011;25155;41.890;23.446;2023-07-20T10:37:50;10.40;;;5.50;;
39454;SDS011;25155;41.890;23.446;2023-07-20T10:40:29;12.73;;;5.97;;
39454;SDS011;25155;41.890;23.446;2023-07-20T10:42:59;13.02;;;5.90;;
39454;SDS011;25155;41.890;23.446;2023-07-20T10:45:33;7.63;;;5.30;;
39454;SDS011;25155;41.890;23.446;2023-07-20T10:48:04;8.48;;;5.30;;
39454;SDS011;25155;41.890;23.446;2023-07-20T10:50:32;13.23;;;5.75;;
39454;SDS011;25155;41.890;23.446;2023-07-20T10:53:10;12.65;;;5.97;;
39454;SDS011;25155;41.890;23.446;2023-07-20T10:55:39;9.68;;;5.65;;
39454;SDS011;25155;41.890;23.446;2023-07-20T10:58:08;11.05;;;5.78;;
39454;SDS011;25155;41.890;23.446;2023-07-20T11:00:36;7.57;;;4.82;;
39454;SDS011;25155;41.890;23.446;2023-07-20T11:03:05;10.23;;;5.40;;
39454;SDS011;25155;41.890;23.446;2023-07-20T11:05:33;14.10;;;6.10;;
39454;SDS011;25155;41.890;23.446;2023-07-20T11:08:09;11.48;;;5.63;;
39454;SDS011;25155;41.890;23.446;2023-07-20T11:10:37;9.13;;;5.00;;
39454;SDS011;25155;41.890;23.446;2023-07-20T11:13:16;8.35;;;5.60;;
39454;SDS011;25155;41.890;23.446;2023-07-20T11:15:46;8.00;;;4.90;;
39454;SDS011;25155;41.890;23.446;2023-07-20T11:18:15;9.10;;;5.78;;
39454;SDS011;25155;41.890;23.446;2023-07-20T11:20:43;11.32;;;6.18;;
39454;SDS011;25155;41.890;23.446;2023-07-20T11:23:17;11.25;;;5.68;;
39454;SDS011;25155;41.890;23.446;2023-07-20T11:25:48;67.88;;;8.32;;
39454;SDS011;25155;41.890;23.446;2023-07-20T11:28:17;13.75;;;6.00;;
39454;SDS011;25155;41.890;23.446;2023-07-20T11:30:44;12.05;;;5.78;;
39454;SDS011;25155;41.890;23.446;2023-07-20T11:33:16;11.15;;;5.80;;
39454;SDS011;25155;41.890;23.446;2023-07-20T11:35:44;18.00;;;5.93;;
39454;SDS011;25155;41.890;23.446;2023-07-20T11:38:12;9.25;;;5.53;;
39454;SDS011;25155;41.890;23.446;2023-07-20T11:40:42;7.38;;;5.47;;
39454;SDS011;25155;41.890;23.446;2023-07-20T11:43:12;12.55;;;5.32;;
39454;SDS011;25155;41.890;23.446;2023-07-20T11:45:40;10.87;;;5.47;;
39454;SDS011;25155;41.890;23.446;2023-07-20T11:48:08;11.65;;;5.80;;
39454;SDS011;25155;41.890;23.446;2023-07-20T11:50:42;12.30;;;5.20;;
39454;SDS011;25155;41.890;23.446;2023-07-20T11:53:09;9.05;;;5.32;;
39454;SDS011;25155;41.890;23.446;2023-07-20T11:55:37;12.80;;;5.32;;
39454;SDS011;25155;41.890;23.446;2023-07-20T11:58:07;8.93;;;5.25;;
39454;SDS011;25155;41.890;23.446;2023-07-20T12:00:38;11.38;;;5.68;;
39454;SDS011;25155;41.890;23.446;2023-07-20T12:03:06;12.90;;;5.65;;
39454;SDS011;25155;41.890;23.446;2023-07-20T12:05:37;10.32;;;5.82;;
39454;SDS011;25155;41.890;23.446;2023-07-20T12:08:05;11.70;;;5.75;;
39454;SDS011;25155;41.890;23.446;2023-07-20T12:10:32;8.48;;;5.50;;
39454;SDS011;25155;41.890;23.446;2023-07-20T12:13:01;10.32;;;5.53;;
39454;SDS011;25155;41.890;23.446;2023-07-20T12:15:30;9.13;;;5.38;;
39454;SDS011;25155;41.890;23.446;2023-07-20T12:18:00;7.60;;;4.93;;
39454;SDS011;25155;41.890;23.446;2023-07-20T12:20:29;8.70;;;4.95;;
39454;SDS011;25155;41.890;23.446;2023-07-20T12:22:58;7.22;;;5.40;;
39454;SDS011;25155;41.890;23.446;2023-07-20T12:25:33;8.68;;;5.80;;
39454;SDS011;25155;41.890;23.446;2023-07-20T12:28:06;9.52;;;5.30;;
39454;SDS011;25155;41.890;23.446;2023-07-20T12:30:38;9.68;;;5.85;;
39454;SDS011;25155;41.890;23.446;2023-07-20T12:33:08;9.93;;;5.97;;
39454;SDS011;25155;41.890;23.446;2023-07-20T12:38:04;12.15;;;5.80;;
39454;SDS011;25155;41.890;23.446;2023-07-20T12:40:31;11.18;;;5.45;;
39454;SDS011;25155;41.890;23.446;2023-07-20T12:42:58;12.00;;;5.90;;
39454;SDS011;25155;41.890;23.446;2023-07-20T12:45:25;8.75;;;5.43;;
39454;SDS011;25155;41.890;23.446;2023-07-20T12:47:54;13.52;;;6.68;;
39454;SDS011;25155;41.890;23.446;2023-07-20T12:50:22;11.60;;;5.43;;
39454;SDS011;25155;41.890;23.446;2023-07-20T12:52:50;9.40;;;6.00;;
39454;SDS011;25155;41.890;23.446;2023-07-20T12:55:17;9.55;;;5.60;;
39454;SDS011;25155;41.890;23.446;2023-07-20T12:57:45;10.23;;;5.78;;
39454;SDS011;25155;41.890;23.446;2023-07-20T13:00:13;9.00;;;5.30;;
39454;SDS011;25155;41.890;23.446;2023-07-20T13:02:42;10.13;;;4.80;;
39454;SDS011;25155;41.890;23.446;2023-07-20T13:05:10;8.52;;;5.50;;
39454;SDS011;25155;41.890;23.446;2023-07-20T13:07:39;7.82;;;4.82;;
39454;SDS011;25155;41.890;23.446;2023-07-20T13:10:09;9.48;;;5.35;;
39454;SDS011;25155;41.890;23.446;2023-07-20T13:12:40;13.77;;;6.18;;
39454;SDS011;25155;41.890;23.446;2023-07-20T13:15:07;8.77;;;5.35;;
39454;SDS011;25155;41.890;23.446;2023-07-20T13:17:36;7.78;;;5.20;;
39454;SDS011;25155;41.890;23.446;2023-07-20T13:20:05;10.27;;;5.18;;
39454;SDS011;25155;41.890;23.446;2023-07-20T13:22:35;8.70;;;5.45;;
39454;SDS011;25155;41.890;23.446;2023-07-20T13:25:10;11.93;;;6.15;;
39454;SDS011;25155;41.890;23.446;2023-07-20T13:27:37;6.47;;;4.70;;
39454;SDS011;25155;41.890;23.446;2023-07-20T13:30:05;8.40;;;5.82;;
39454;SDS011;25155;41.890;23.446;2023-07-20T13:32:35;9.55;;;5.40;;
39454;SDS011;25155;41.890;23.446;2023-07-20T13:35:05;10.65;;;5.93;;
39454;SDS011;25155;41.890;23.446;2023-07-20T13:37:33;8.23;;;5.78;;
39454;SDS011;25155;41.890;23.446;2023-07-20T13:40:00;7.82;;;5.10;;
39454;SDS011;25155;41.890;23.446;2023-07-20T13:42:30;9.20;;;5.45;;
39454;SDS011;25155;41.890;23.446;2023-07-20T13:44:57;14.45;;;5.70;;
39454;SDS011;25155;41.890;23.446;2023-07-20T13:47:24;15.25;;;5.82;;
39454;SDS011;25155;41.890;23.446;2023-07-20T13:49:53;7.68;;;4.97;;
39454;SDS011;25155;41.890;23.446;2023-07-20T13:52:21;9.18;;;5.72;;
39454;SDS011;25155;41.890;23.446;2023-07-20T13:54:51;10.15;;;5.22;;
39454;SDS011;25155;41.890;23.446;2023-07-20T13:57:19;8.70;;;5.13;;
39454;SDS011;25155;41.890;23.446;2023-07-20T13:59:47;20.05;;;7.72;;
39454;SDS011;25155;41.890;23.446;2023-07-20T14:02:15;8.40;;;5.15;;
39454;SDS011;25155;41.890;23.446;2023-07-20T14:04:42;7.32;;;4.88;;
39454;SDS011;25155;41.890;23.446;2023-07-20T14:07:09;9.52;;;5.20;;
39454;SDS011;25155;41.890;23.446;2023-07-20T14:09:37;11.65;;;5.43;;
39454;SDS011;25155;41.890;23.446;2023-07-20T14:12:05;11.10;;;5.38;;
39454;SDS011;25155;41.890;23.446;2023-07-20T14:14:33;10.02;;;5.35;;
39454;SDS011;25155;41.890;23.446;2023-07-20T14:17:03;9.05;;;5.10;;
39454;SDS011;25155;41.890;23.446;2023-07-20T14:19:33;9.23;;;5.25;;
39454;SDS011;25155;41.890;23.446;2023-07-20T14:22:00;8.45;;;5.28;;
39454;SDS011;25155;41.890;23.446;2023-07-20T14:24:29;8.40;;;4.97;;
39454;SDS011;25155;41.890;23.446;2023-07-20T14:26:57;8.27;;;4.65;;
39454;SDS011;25155;41.890;23.446;2023-07-20T14:29:27;10.75;;;5.35;;
39454;SDS011;25155;41.890;23.446;2023-07-20T14:31:59;8.32;;;4.75;;
39454;SDS011;25155;41.890;23.446;2023-07-20T14:34:28;6.25;;;4.20;;
39454;SDS011;25155;41.890;23.446;2023-07-20T14:36:58;9.32;;;5.40;;
39454;SDS011;25155;41.890;23.446;2023-07-20T14:39:26;10.73;;;4.43;;
39454;SDS011;25155;41.890;23.446;2023-07-20T14:41:53;13.70;;;5.85;;
39454;SDS011;25155;41.890;23.446;2023-07-20T14:44:20;7.60;;;4.70;;
39454;SDS011;25155;41.890;23.446;2023-07-20T14:46:48;7.25;;;4.40;;
39454;SDS011;25155;41.890;23.446;2023-07-20T14:49:16;10.85;;;5.13;;